createdAt,value
2023-12-28T00:00:49.510Z,22.60
2023-12-28T00:06:59.818Z,22.60
2023-12-28T00:12:23.988Z,23.40
2023-12-28T00:18:17.817Z,23.60
2023-12-28T00:23:26.637Z,24.40
2023-12-28T00:28:55.716Z,25.30
2023-12-28T00:34:34.999Z,24.90
2023-12-28T00:39:51.770Z,24.40
2023-12-28T00:45:49.917Z,24.40
2023-12-28T00:51:36.926Z,24.60
2023-12-28T00:56:56.271Z,24.70
2023-12-28T01:02:30.952Z,24.00
2023-12-28T01:07:58.189Z,21.90
2023-12-28T01:13:29.598Z,21.70
2023-12-28T01:18:39.043Z,20.10
2023-12-28T01:23:58.800Z,18.20
2023-12-28T01:29:21.048Z,18.80
2023-12-28T01:34:24.850Z,17.60
2023-12-28T01:40:02.104Z,16.90
2023-12-28T01:45:43.444Z,16.30
2023-12-28T01:51:00.641Z,16.00
2023-12-28T01:56:04.768Z,16.60
2023-12-28T02:01:34.211Z,15.30
2023-12-28T02:07:01.750Z,15.20
2023-12-28T02:12:18.607Z,15.00
2023-12-28T02:17:54.862Z,14.70
2023-12-28T02:23:25.606Z,15.00
2023-12-28T02:28:49.173Z,15.10
2023-12-28T02:34:49.741Z,14.90
2023-12-28T02:40:17.793Z,15.00
2023-12-28T02:45:31.822Z,14.00
2023-12-28T02:51:18.405Z,14.80
2023-12-28T02:56:33.043Z,13.30
2023-12-28T03:01:56.886Z,13.10
2023-12-28T03:07:12.168Z,12.80
2023-12-28T03:13:02.866Z,13.00
2023-12-28T03:18:39.150Z,12.50
2023-12-28T03:23:54.011Z,11.40
2023-12-28T03:29:43.708Z,12.90
2023-12-28T03:35:30.926Z,11.70
2023-12-28T03:41:35.031Z,11.40
2023-12-28T03:47:30.322Z,11.70
2023-12-28T03:53:04.208Z,12.00
2023-12-28T03:58:40.849Z,11.70
2023-12-28T04:03:47.932Z,11.30
2023-12-28T04:09:38.590Z,11.40
2023-12-28T04:15:28.373Z,11.70
2023-12-28T04:21:10.104Z,12.70
2023-12-28T04:27:18.702Z,12.30
2023-12-28T04:32:49.756Z,11.70
2023-12-28T04:38:29.305Z,11.90
2023-12-28T04:44:37.439Z,12.80
2023-12-28T04:50:03.953Z,12.60
2023-12-28T04:55:46.041Z,12.30
2023-12-28T05:00:52.638Z,11.40
2023-12-28T05:06:02.240Z,12.20
2023-12-28T05:11:10.176Z,12.00
2023-12-28T05:16:35.705Z,11.60
2023-12-28T05:22:05.123Z,11.80
2023-12-28T05:27:29.998Z,10.90
2023-12-28T05:33:13.097Z,11.30
2023-12-28T05:38:21.951Z,11.50
2023-12-28T05:43:33.336Z,11.20
2023-12-28T05:48:54.902Z,11.20
2023-12-28T05:54:43.045Z,11.30
2023-12-28T06:00:11.274Z,11.50
2023-12-28T06:05:38.280Z,12.10
2023-12-28T06:10:44.834Z,15.00
2023-12-28T06:15:55.598Z,15.70
2023-12-28T06:21:19.649Z,12.40
2023-12-28T06:26:41.242Z,12.60
2023-12-28T06:32:28.757Z,12.20
2023-12-28T06:38:08.848Z,12.50
2023-12-28T06:44:08.745Z,10.80
2023-12-28T06:49:51.341Z,11.90
2023-12-28T06:55:13.847Z,12.30
2023-12-28T07:00:58.806Z,13.80
2023-12-28T07:06:29.596Z,12.00
2023-12-28T07:12:24.049Z,11.50
2023-12-28T07:17:46.050Z,12.20
2023-12-28T07:22:58.201Z,12.80
2023-12-28T07:28:15.900Z,12.60
2023-12-28T07:34:01.694Z,12.20
2023-12-28T07:39:16.502Z,12.50
2023-12-28T07:44:27.594Z,11.90
2023-12-28T07:50:16.232Z,12.20
2023-12-28T07:56:00.387Z,12.00
2023-12-28T08:01:44.698Z,13.00
2023-12-28T08:06:48.253Z,12.20
2023-12-28T08:12:04.722Z,12.60
2023-12-28T08:17:13.924Z,12.00
2023-12-28T08:22:37.534Z,12.20
2023-12-28T08:28:03.108Z,11.90
2023-12-28T08:33:42.577Z,11.10
2023-12-28T08:38:52.060Z,11.50
2023-12-28T08:43:55.566Z,10.80
2023-12-28T08:49:36.731Z,9.70
2023-12-28T08:55:13.745Z,9.00
2023-12-28T09:00:39.349Z,8.70
2023-12-28T09:05:48.748Z,8.40
2023-12-28T09:11:31.148Z,8.40
2023-12-28T09:16:38.002Z,8.40
2023-12-28T09:22:18.521Z,7.60
2023-12-28T09:27:24.832Z,7.80
2023-12-28T09:32:38.911Z,7.60
2023-12-28T09:37:44.677Z,7.40
2023-12-28T09:43:26.447Z,7.60
2023-12-28T09:48:33.985Z,7.50
2023-12-28T09:53:42.082Z,7.10
2023-12-28T09:58:50.505Z,6.90
2023-12-28T10:03:56.619Z,9.20
2023-12-28T10:09:00.912Z,8.80
2023-12-28T10:14:05.983Z,9.10
2023-12-28T10:19:13.110Z,9.30
2023-12-28T10:24:19.602Z,8.10
2023-12-28T10:29:49.355Z,8.20
2023-12-28T10:35:10.038Z,7.90
2023-12-28T10:40:45.635Z,8.30
2023-12-28T10:45:58.222Z,8.10
2023-12-28T10:51:07.799Z,8.80
2023-12-28T10:56:40.756Z,8.50
2023-12-28T11:01:51.358Z,7.90
2023-12-28T11:07:19.179Z,8.40
2023-12-28T11:12:29.507Z,7.80
2023-12-28T11:17:35.133Z,8.10
2023-12-28T11:23:02.324Z,7.20
2023-12-28T11:28:35.114Z,8.70
2023-12-28T11:34:06.193Z,8.30
2023-12-28T11:39:14.907Z,8.70
2023-12-28T11:44:43.257Z,8.70
2023-12-28T11:49:57.122Z,8.40
2023-12-28T11:55:32.328Z,8.60
2023-12-28T12:00:38.769Z,8.30
2023-12-28T12:05:45.997Z,8.30
2023-12-28T12:11:31.749Z,8.50
2023-12-28T12:16:50.319Z,8.40
2023-12-28T12:21:57.197Z,8.10
2023-12-28T12:27:14.408Z,8.80
2023-12-28T12:32:44.164Z,8.20
2023-12-28T12:38:37.256Z,8.30
2023-12-28T12:44:05.506Z,8.10
2023-12-28T12:50:04.615Z,8.20
2023-12-28T12:55:13.605Z,7.70
2023-12-28T13:00:46.620Z,7.60
2023-12-28T13:06:24.170Z,7.60
2023-12-28T13:11:58.153Z,7.20
2023-12-28T13:17:15.492Z,7.50
2023-12-28T13:22:51.903Z,6.60
2023-12-28T13:28:04.195Z,7.60
2023-12-28T13:33:10.680Z,7.40
2023-12-28T13:38:19.862Z,7.00
2023-12-28T13:44:04.230Z,7.00
2023-12-28T13:49:09.328Z,6.80
2023-12-28T13:54:59.295Z,7.50
2023-12-28T14:00:03.388Z,7.80
2023-12-28T14:05:58.775Z,8.50
2023-12-28T14:11:47.827Z,9.10
2023-12-28T14:16:57.081Z,8.50
2023-12-28T14:22:23.391Z,7.90
2023-12-28T14:27:33.139Z,9.90
2023-12-28T14:32:59.086Z,13.10
2023-12-28T14:38:09.257Z,12.00
2023-12-28T14:43:26.635Z,13.20
2023-12-28T14:48:33.039Z,17.10
2023-12-28T14:54:21.312Z,10.30
2023-12-28T14:59:27.579Z,10.90
2023-12-28T15:04:38.960Z,15.00
2023-12-28T15:10:00.013Z,10.90
2023-12-28T15:15:24.978Z,19.30
2023-12-28T15:21:07.856Z,13.30
2023-12-28T15:26:30.848Z,8.50
2023-12-28T15:32:02.490Z,8.30
2023-12-28T15:37:32.368Z,9.50
2023-12-28T15:43:20.557Z,8.90
2023-12-28T15:48:44.110Z,8.70
2023-12-28T15:54:09.345Z,9.30
2023-12-28T15:59:27.185Z,9.40
2023-12-28T16:04:35.665Z,9.70
2023-12-28T16:10:13.244Z,9.60
2023-12-28T16:16:03.287Z,9.10
2023-12-28T16:22:10.511Z,8.40
2023-12-28T16:28:09.253Z,10.50
2023-12-28T16:34:08.741Z,9.80
2023-12-28T16:40:33.173Z,9.40
2023-12-28T16:45:46.505Z,10.20
2023-12-28T16:51:01.568Z,10.40
2023-12-28T16:56:15.915Z,11.20
2023-12-28T17:01:26.132Z,11.20
2023-12-28T17:06:40.582Z,10.70
2023-12-28T17:12:10.780Z,11.50
2023-12-28T17:17:42.486Z,11.00
2023-12-28T17:22:51.234Z,11.70
2023-12-28T17:28:17.473Z,10.50
2023-12-28T17:33:33.075Z,9.90
2023-12-28T17:38:51.471Z,10.00
2023-12-28T17:44:50.586Z,10.10
2023-12-28T17:50:27.911Z,11.00
2023-12-28T17:55:44.381Z,10.40
2023-12-28T18:01:18.505Z,10.30
2023-12-28T18:06:58.063Z,10.10
2023-12-28T18:12:48.723Z,10.00
2023-12-28T18:18:37.679Z,10.40
2023-12-28T18:24:32.408Z,9.80
2023-12-28T18:29:54.607Z,10.20
2023-12-28T18:35:55.127Z,10.10
2023-12-28T18:41:04.704Z,10.20
2023-12-28T18:46:45.487Z,9.50
2023-12-28T18:52:11.918Z,9.40
2023-12-28T18:57:59.722Z,8.90
2023-12-28T19:03:05.228Z,9.50
2023-12-28T19:08:40.868Z,8.90
2023-12-28T19:14:44.957Z,9.50
2023-12-28T19:20:15.588Z,8.80
2023-12-28T19:25:43.649Z,8.60
2023-12-28T19:31:43.505Z,9.10
2023-12-28T19:37:41.855Z,9.10
2023-12-28T19:43:16.300Z,9.20
2023-12-28T19:49:10.669Z,9.50
2023-12-28T19:55:24.051Z,8.70
2023-12-28T20:01:13.908Z,8.50
2023-12-28T20:07:26.115Z,8.40
2023-12-28T20:12:42.247Z,9.20
2023-12-28T20:18:32.584Z,8.90
2023-12-28T20:24:33.547Z,9.00
2023-12-28T20:30:12.380Z,8.90
2023-12-28T20:35:52.245Z,9.30
2023-12-28T20:41:07.697Z,9.30
2023-12-28T20:46:14.392Z,8.80
2023-12-28T20:51:41.396Z,8.90
2023-12-28T20:57:31.273Z,8.90
2023-12-28T21:03:41.728Z,8.40
2023-12-28T21:09:43.439Z,8.10
2023-12-28T21:15:17.347Z,8.60
2023-12-28T21:26:21.063Z,8.30
2023-12-28T21:31:34.673Z,9.00
2023-12-28T21:36:54.888Z,8.80
2023-12-28T21:42:23.131Z,8.40
2023-12-28T21:48:36.169Z,8.60
2023-12-28T21:54:19.050Z,9.10
2023-12-28T21:59:53.084Z,9.80
2023-12-28T22:06:10.601Z,9.70
2023-12-28T22:12:04.740Z,9.60
2023-12-28T22:17:44.737Z,9.10
2023-12-28T22:23:32.926Z,9.50
2023-12-28T22:29:08.480Z,9.20
2023-12-28T22:34:45.509Z,9.50
2023-12-28T22:40:47.768Z,8.70
2023-12-28T22:46:47.493Z,9.10
2023-12-28T22:52:20.263Z,8.50
2023-12-28T22:57:59.037Z,8.20
2023-12-28T23:03:53.434Z,7.90
2023-12-28T23:09:35.639Z,7.80
2023-12-28T23:15:40.537Z,7.60
2023-12-28T23:21:18.850Z,7.90
2023-12-28T23:27:15.597Z,8.00
2023-12-28T23:32:59.390Z,7.30
2023-12-28T23:38:46.256Z,7.40
2023-12-28T23:45:09.015Z,7.20
2023-12-28T23:51:12.061Z,7.20
2023-12-28T23:57:22.944Z,7.10
